sensor_id;sensor_type;location;lat;lon;timestamp;temperature;humidity
73438;DHT22;62744;56.802;23.964;2022-09-09T00:01:53;5.60;83.90
73438;DHT22;62744;56.802;23.964;2022-09-09T00:04:27;5.60;84.10
73438;DHT22;62744;56.802;23.964;2022-09-09T00:07:19;5.60;84.00
73438;DHT22;62744;56.802;23.964;2022-09-09T00:12:38;5.50;84.20
73438;DHT22;62744;56.802;23.964;2022-09-09T00:15:14;5.40;84.60
73438;DHT22;62744;56.802;23.964;2022-09-09T00:18:30;5.30;84.30
73438;DHT22;62744;56.802;23.964;2022-09-09T00:21:06;5.30;84.70
73438;DHT22;62744;56.802;23.964;2022-09-09T00:23:47;5.40;84.70
73438;DHT22;62744;56.802;23.964;2022-09-09T00:26:42;5.50;84.00
73438;DHT22;62744;56.802;23.964;2022-09-09T00:31:48;5.20;84.40
73438;DHT22;62744;56.802;23.964;2022-09-09T00:34:24;5.20;85.00
73438;DHT22;62744;56.802;23.964;2022-09-09T00:36:55;5.00;85.00
73438;DHT22;62744;56.802;23.964;2022-09-09T00:39:36;5.10;85.30
73438;DHT22;62744;56.802;23.964;2022-09-09T00:45:01;4.80;85.40
73438;DHT22;62744;56.802;23.964;2022-09-09T00:50:15;4.90;85.50
73438;DHT22;62744;56.802;23.964;2022-09-09T00:58:20;4.80;85.80
73438;DHT22;62744;56.802;23.964;2022-09-09T01:00:56;4.70;86.10
73438;DHT22;62744;56.802;23.964;2022-09-09T01:03:47;4.90;86.00
73438;DHT22;62744;56.802;23.964;2022-09-09T01:06:32;5.00;86.20
73438;DHT22;62744;56.802;23.964;2022-09-09T01:20:03;4.80;86.60
73438;DHT22;62744;56.802;23.964;2022-09-09T01:22:55;4.90;86.50
73438;DHT22;62744;56.802;23.964;2022-09-09T01:28:35;4.70;86.70
73438;DHT22;62744;56.802;23.964;2022-09-09T01:31:06;4.60;86.30
73438;DHT22;62744;56.802;23.964;2022-09-09T01:33:36;4.80;86.50
73438;DHT22;62744;56.802;23.964;2022-09-09T01:36:08;4.90;86.20
73438;DHT22;62744;56.802;23.964;2022-09-09T01:38:38;4.80;86.50
73438;DHT22;62744;56.802;23.964;2022-09-09T01:41:06;4.60;86.60
73438;DHT22;62744;56.802;23.964;2022-09-09T01:43:33;4.90;86.60
73438;DHT22;62744;56.802;23.964;2022-09-09T01:46:01;4.80;86.50
73438;DHT22;62744;56.802;23.964;2022-09-09T01:48:30;4.90;86.60
73438;DHT22;62744;56.802;23.964;2022-09-09T01:50:58;4.90;86.60
73438;DHT22;62744;56.802;23.964;2022-09-09T01:53:25;5.00;86.50
73438;DHT22;62744;56.802;23.964;2022-09-09T01:56:08;4.80;86.70
73438;DHT22;62744;56.802;23.964;2022-09-09T02:01:40;5.00;86.40
73438;DHT22;62744;56.802;23.964;2022-09-09T02:04:47;4.90;86.60
73438;DHT22;62744;56.802;23.964;2022-09-09T02:09:48;5.00;86.60
73438;DHT22;62744;56.802;23.964;2022-09-09T02:12:19;4.80;86.70
73438;DHT22;62744;56.802;23.964;2022-09-09T02:15:05;4.90;86.30
73438;DHT22;62744;56.802;23.964;2022-09-09T02:17:36;5.10;86.50
73438;DHT22;62744;56.802;23.964;2022-09-09T02:20:10;5.10;86.60
73438;DHT22;62744;56.802;23.964;2022-09-09T02:22:42;4.90;86.70
73438;DHT22;62744;56.802;23.964;2022-09-09T02:25:14;5.10;86.50
73438;DHT22;62744;56.802;23.964;2022-09-09T02:27:46;5.00;86.60
73438;DHT22;62744;56.802;23.964;2022-09-09T02:30:16;5.00;86.50
73438;DHT22;62744;56.802;23.964;2022-09-09T02:32:45;5.00;86.40
73438;DHT22;62744;56.802;23.964;2022-09-09T02:35:16;4.90;86.40
73438;DHT22;62744;56.802;23.964;2022-09-09T02:37:45;5.10;86.50
73438;DHT22;62744;56.802;23.964;2022-09-09T02:40:15;5.00;86.50
73438;DHT22;62744;56.802;23.964;2022-09-09T02:42:45;5.00;87.00
73438;DHT22;62744;56.802;23.964;2022-09-09T02:45:23;5.00;86.80
73438;DHT22;62744;56.802;23.964;2022-09-09T02:48:09;4.80;86.60
73438;DHT22;62744;56.802;23.964;2022-09-09T02:50:54;4.90;86.60
73438;DHT22;62744;56.802;23.964;2022-09-09T02:53:37;5.00;86.60
73438;DHT22;62744;56.802;23.964;2022-09-09T02:56:14;4.80;86.70
73438;DHT22;62744;56.802;23.964;2022-09-09T02:58:43;4.90;86.50
73438;DHT22;62744;56.802;23.964;2022-09-09T03:01:11;5.00;86.60
73438;DHT22;62744;56.802;23.964;2022-09-09T03:03:38;5.00;86.30
73438;DHT22;62744;56.802;23.964;2022-09-09T03:06:07;5.10;86.70
73438;DHT22;62744;56.802;23.964;2022-09-09T03:08:34;5.00;86.30
73438;DHT22;62744;56.802;23.964;2022-09-09T03:11:03;4.90;86.20
73438;DHT22;62744;56.802;23.964;2022-09-09T03:13:31;4.90;86.30
73438;DHT22;62744;56.802;23.964;2022-09-09T03:15:58;4.80;86.50
73438;DHT22;62744;56.802;23.964;2022-09-09T03:18:26;4.90;86.70
73438;DHT22;62744;56.802;23.964;2022-09-09T03:20:55;4.70;86.50
73438;DHT22;62744;56.802;23.964;2022-09-09T03:23:22;4.80;86.80
73438;DHT22;62744;56.802;23.964;2022-09-09T03:25:50;4.80;86.50
73438;DHT22;62744;56.802;23.964;2022-09-09T03:28:19;4.70;86.50
73438;DHT22;62744;56.802;23.964;2022-09-09T03:30:47;4.60;86.60
73438;DHT22;62744;56.802;23.964;2022-09-09T03:33:16;4.80;86.80
73438;DHT22;62744;56.802;23.964;2022-09-09T03:35:47;4.80;86.70
73438;DHT22;62744;56.802;23.964;2022-09-09T03:38:15;4.80;86.80
73438;DHT22;62744;56.802;23.964;2022-09-09T03:40:54;4.80;86.80
73438;DHT22;62744;56.802;23.964;2022-09-09T03:43:23;4.80;86.60
73438;DHT22;62744;56.802;23.964;2022-09-09T03:45:52;4.80;86.90
73438;DHT22;62744;56.802;23.964;2022-09-09T03:48:19;4.80;86.90
73438;DHT22;62744;56.802;23.964;2022-09-09T03:50:49;4.70;86.80
73438;DHT22;62744;56.802;23.964;2022-09-09T03:53:19;4.80;87.00
73438;DHT22;62744;56.802;23.964;2022-09-09T03:55:49;4.70;87.20
73438;DHT22;62744;56.802;23.964;2022-09-09T03:58:17;4.80;87.20
73438;DHT22;62744;56.802;23.964;2022-09-09T04:01:04;4.90;86.90
73438;DHT22;62744;56.802;23.964;2022-09-09T04:03:32;4.90;86.90
73438;DHT22;62744;56.802;23.964;2022-09-09T04:06:01;4.90;86.70
73438;DHT22;62744;56.802;23.964;2022-09-09T04:08:30;5.00;86.70
73438;DHT22;62744;56.802;23.964;2022-09-09T04:10:59;4.90;86.30
73438;DHT22;62744;56.802;23.964;2022-09-09T04:13:29;5.10;86.60
73438;DHT22;62744;56.802;23.964;2022-09-09T04:15:59;5.30;86.20
73438;DHT22;62744;56.802;23.964;2022-09-09T04:18:27;5.60;85.70
73438;DHT22;62744;56.802;23.964;2022-09-09T04:20:58;5.60;85.20
73438;DHT22;62744;56.802;23.964;2022-09-09T04:23:27;5.90;84.70
73438;DHT22;62744;56.802;23.964;2022-09-09T04:25:59;6.10;84.00
73438;DHT22;62744;56.802;23.964;2022-09-09T04:28:29;6.60;82.80
73438;DHT22;62744;56.802;23.964;2022-09-09T04:31:03;7.10;81.00
73438;DHT22;62744;56.802;23.964;2022-09-09T04:33:31;7.40;79.50
73438;DHT22;62744;56.802;23.964;2022-09-09T04:36:05;7.70;78.20
73438;DHT22;62744;56.802;23.964;2022-09-09T04:38:33;8.20;77.60
73438;DHT22;62744;56.802;23.964;2022-09-09T04:41:00;8.50;76.60
73438;DHT22;62744;56.802;23.964;2022-09-09T04:43:28;8.70;76.00
73438;DHT22;62744;56.802;23.964;2022-09-09T04:45:57;8.80;75.10
73438;DHT22;62744;56.802;23.964;2022-09-09T04:48:26;9.20;74.10
73438;DHT22;62744;56.802;23.964;2022-09-09T04:51:05;9.10;74.40
73438;DHT22;62744;56.802;23.964;2022-09-09T04:53:33;9.30;73.60
73438;DHT22;62744;56.802;23.964;2022-09-09T04:56:06;9.40;73.10
73438;DHT22;62744;56.802;23.964;2022-09-09T04:58:34;9.50;73.40
73438;DHT22;62744;56.802;23.964;2022-09-09T05:01:05;9.70;72.30
73438;DHT22;62744;56.802;23.964;2022-09-09T05:03:33;9.60;72.30
73438;DHT22;62744;56.802;23.964;2022-09-09T05:06:05;9.50;72.70
73438;DHT22;62744;56.802;23.964;2022-09-09T05:08:33;9.50;72.70
73438;DHT22;62744;56.802;23.964;2022-09-09T05:11:01;9.60;72.30
73438;DHT22;62744;56.802;23.964;2022-09-09T05:13:30;9.70;72.20
73438;DHT22;62744;56.802;23.964;2022-09-09T05:15:59;9.80;71.90
73438;DHT22;62744;56.802;23.964;2022-09-09T05:18:26;10.20;71.30
73438;DHT22;62744;56.802;23.964;2022-09-09T05:20:59;10.30;70.20
73438;DHT22;62744;56.802;23.964;2022-09-09T05:23:27;10.00;71.20
73438;DHT22;62744;56.802;23.964;2022-09-09T05:25:56;10.10;70.90
73438;DHT22;62744;56.802;23.964;2022-09-09T05:28:25;10.20;70.50
73438;DHT22;62744;56.802;23.964;2022-09-09T05:31:07;10.20;70.50
73438;DHT22;62744;56.802;23.964;2022-09-09T05:33:36;10.30;70.30
73438;DHT22;62744;56.802;23.964;2022-09-09T05:36:06;10.30;70.30
73438;DHT22;62744;56.802;23.964;2022-09-09T05:38:35;10.30;69.80
73438;DHT22;62744;56.802;23.964;2022-09-09T05:41:03;10.10;71.10
73438;DHT22;62744;56.802;23.964;2022-09-09T05:43:31;10.20;70.70
73438;DHT22;62744;56.802;23.964;2022-09-09T05:46:13;10.30;70.50
73438;DHT22;62744;56.802;23.964;2022-09-09T05:48:42;10.70;69.40
73438;DHT22;62744;56.802;23.964;2022-09-09T05:51:13;10.80;70.80
73438;DHT22;62744;56.802;23.964;2022-09-09T05:53:43;10.80;69.60
73438;DHT22;62744;56.802;23.964;2022-09-09T05:56:16;11.10;69.20
73438;DHT22;62744;56.802;23.964;2022-09-09T05:58:45;11.30;68.30
73438;DHT22;62744;56.802;23.964;2022-09-09T06:01:18;11.60;68.20
73438;DHT22;62744;56.802;23.964;2022-09-09T06:03:47;12.40;66.50
73438;DHT22;62744;56.802;23.964;2022-09-09T06:06:18;12.10;66.90
73438;DHT22;62744;56.802;23.964;2022-09-09T06:08:50;12.10;67.20
73438;DHT22;62744;56.802;23.964;2022-09-09T06:11:24;12.50;66.40
73438;DHT22;62744;56.802;23.964;2022-09-09T06:13:52;12.60;66.30
73438;DHT22;62744;56.802;23.964;2022-09-09T06:16:23;12.90;64.60
73438;DHT22;62744;56.802;23.964;2022-09-09T06:18:52;13.00;63.20
73438;DHT22;62744;56.802;23.964;2022-09-09T06:21:23;12.90;63.80
73438;DHT22;62744;56.802;23.964;2022-09-09T06:23:51;12.90;63.30
73438;DHT22;62744;56.802;23.964;2022-09-09T06:26:24;12.80;63.40
73438;DHT22;62744;56.802;23.964;2022-09-09T06:28:55;12.80;63.60
73438;DHT22;62744;56.802;23.964;2022-09-09T06:31:24;12.90;63.00
73438;DHT22;62744;56.802;23.964;2022-09-09T06:33:57;13.00;63.10
73438;DHT22;62744;56.802;23.964;2022-09-09T06:36:34;13.20;65.60
73438;DHT22;62744;56.802;23.964;2022-09-09T06:39:02;13.80;64.40
73438;DHT22;62744;56.802;23.964;2022-09-09T06:41:31;14.50;60.50
73438;DHT22;62744;56.802;23.964;2022-09-09T06:43:59;14.50;60.80
73438;DHT22;62744;56.802;23.964;2022-09-09T06:46:29;14.10;59.70
73438;DHT22;62744;56.802;23.964;2022-09-09T06:48:59;14.00;61.90
73438;DHT22;62744;56.802;23.964;2022-09-09T06:51:30;14.30;61.00
73438;DHT22;62744;56.802;23.964;2022-09-09T06:53:59;14.70;60.10
73438;DHT22;62744;56.802;23.964;2022-09-09T06:56:29;14.50;59.30
73438;DHT22;62744;56.802;23.964;2022-09-09T06:58:59;14.20;60.50
73438;DHT22;62744;56.802;23.964;2022-09-09T07:01:37;14.00;59.90
73438;DHT22;62744;56.802;23.964;2022-09-09T07:04:05;13.70;60.50
73438;DHT22;62744;56.802;23.964;2022-09-09T07:06:37;14.00;59.90
73438;DHT22;62744;56.802;23.964;2022-09-09T07:09:07;13.90;60.40
73438;DHT22;62744;56.802;23.964;2022-09-09T07:11:41;13.90;61.00
73438;DHT22;62744;56.802;23.964;2022-09-09T07:14:09;14.20;60.90
73438;DHT22;62744;56.802;23.964;2022-09-09T07:16:44;14.30;58.80
73438;DHT22;62744;56.802;23.964;2022-09-09T07:19:14;14.40;60.10
73438;DHT22;62744;56.802;23.964;2022-09-09T07:21:42;14.30;59.80
73438;DHT22;62744;56.802;23.964;2022-09-09T07:24:10;14.20;58.50
73438;DHT22;62744;56.802;23.964;2022-09-09T07:26:40;14.20;59.80
73438;DHT22;62744;56.802;23.964;2022-09-09T07:29:08;14.50;58.40
73438;DHT22;62744;56.802;23.964;2022-09-09T07:31:38;14.50;58.40
73438;DHT22;62744;56.802;23.964;2022-09-09T07:34:07;14.20;57.70
73438;DHT22;62744;56.802;23.964;2022-09-09T07:36:37;14.20;58.60
73438;DHT22;62744;56.802;23.964;2022-09-09T07:39:08;13.80;58.60
73438;DHT22;62744;56.802;23.964;2022-09-09T07:41:44;13.70;57.60
73438;DHT22;62744;56.802;23.964;2022-09-09T07:44:14;13.70;59.20
73438;DHT22;62744;56.802;23.964;2022-09-09T07:46:42;13.80;59.70
73438;DHT22;62744;56.802;23.964;2022-09-09T07:49:10;13.80;57.00
73438;DHT22;62744;56.802;23.964;2022-09-09T07:51:40;14.00;58.80
73438;DHT22;62744;56.802;23.964;2022-09-09T07:54:10;14.00;56.70
73438;DHT22;62744;56.802;23.964;2022-09-09T07:56:40;14.00;57.50
73438;DHT22;62744;56.802;23.964;2022-09-09T07:59:08;14.10;57.60
73438;DHT22;62744;56.802;23.964;2022-09-09T08:01:43;14.00;57.10
73438;DHT22;62744;56.802;23.964;2022-09-09T08:04:16;13.90;56.70
73438;DHT22;62744;56.802;23.964;2022-09-09T08:06:47;14.00;56.30
73438;DHT22;62744;56.802;23.964;2022-09-09T08:09:16;14.10;57.80
73438;DHT22;62744;56.802;23.964;2022-09-09T08:11:44;14.10;57.20
73438;DHT22;62744;56.802;23.964;2022-09-09T08:14:12;14.00;56.90
73438;DHT22;62744;56.802;23.964;2022-09-09T08:16:44;14.40;57.00
73438;DHT22;62744;56.802;23.964;2022-09-09T08:19:13;14.60;55.70
73438;DHT22;62744;56.802;23.964;2022-09-09T08:21:43;14.60;56.20
73438;DHT22;62744;56.802;23.964;2022-09-09T08:24:13;14.60;55.00
73438;DHT22;62744;56.802;23.964;2022-09-09T08:26:45;14.40;56.00
73438;DHT22;62744;56.802;23.964;2022-09-09T08:29:14;14.50;54.50
73438;DHT22;62744;56.802;23.964;2022-09-09T08:31:53;14.70;53.70
73438;DHT22;62744;56.802;23.964;2022-09-09T08:34:22;14.70;54.90
73438;DHT22;62744;56.802;23.964;2022-09-09T08:36:51;14.70;53.30
73438;DHT22;62744;56.802;23.964;2022-09-09T08:39:20;14.50;53.00
73438;DHT22;62744;56.802;23.964;2022-09-09T08:48:13;14.60;53.50
73438;DHT22;62744;56.802;23.964;2022-09-09T08:50:44;14.80;53.00
73438;DHT22;62744;56.802;23.964;2022-09-09T08:53:20;14.70;51.80
73438;DHT22;62744;56.802;23.964;2022-09-09T08:55:54;14.60;52.30
73438;DHT22;62744;56.802;23.964;2022-09-09T08:58:33;14.80;52.50
73438;DHT22;62744;56.802;23.964;2022-09-09T09:12:00;14.70;52.00
73438;DHT22;62744;56.802;23.964;2022-09-09T09:14:34;14.80;51.80
73438;DHT22;62744;56.802;23.964;2022-09-09T09:17:10;14.90;51.50
73438;DHT22;62744;56.802;23.964;2022-09-09T09:19:41;14.70;50.00
73438;DHT22;62744;56.802;23.964;2022-09-09T09:22:22;14.70;52.00
73438;DHT22;62744;56.802;23.964;2022-09-09T09:24:56;14.90;50.20
73438;DHT22;62744;56.802;23.964;2022-09-09T09:27:33;15.00;50.90
73438;DHT22;62744;56.802;23.964;2022-09-09T09:30:23;15.00;51.20
73438;DHT22;62744;56.802;23.964;2022-09-09T09:33:01;15.10;53.10
73438;DHT22;62744;56.802;23.964;2022-09-09T09:35:29;15.30;51.80
73438;DHT22;62744;56.802;23.964;2022-09-09T09:37:57;15.30;51.00
73438;DHT22;62744;56.802;23.964;2022-09-09T09:40:52;15.20;51.80
73438;DHT22;62744;56.802;23.964;2022-09-09T09:43:29;15.00;51.90
73438;DHT22;62744;56.802;23.964;2022-09-09T09:45:58;15.00;52.30
73438;DHT22;62744;56.802;23.964;2022-09-09T09:48:43;15.10;52.00
73438;DHT22;62744;56.802;23.964;2022-09-09T09:51:14;15.00;51.20
73438;DHT22;62744;56.802;23.964;2022-09-09T09:53:44;14.90;50.70
73438;DHT22;62744;56.802;23.964;2022-09-09T09:56:14;15.20;51.90
73438;DHT22;62744;56.802;23.964;2022-09-09T10:01:30;15.20;51.10
73438;DHT22;62744;56.802;23.964;2022-09-09T10:04:16;15.50;50.70
73438;DHT22;62744;56.802;23.964;2022-09-09T10:06:46;15.50;49.50
73438;DHT22;62744;56.802;23.964;2022-09-09T10:09:30;15.60;50.20
73438;DHT22;62744;56.802;23.964;2022-09-09T10:12:03;15.70;48.70
73438;DHT22;62744;56.802;23.964;2022-09-09T10:14:55;15.50;48.80
73438;DHT22;62744;56.802;23.964;2022-09-09T10:17:35;15.50;47.80
73438;DHT22;62744;56.802;23.964;2022-09-09T10:22:51;15.40;50.40
73438;DHT22;62744;56.802;23.964;2022-09-09T10:28:10;15.60;49.00
73438;DHT22;62744;56.802;23.964;2022-09-09T10:33:46;15.60;48.40
73438;DHT22;62744;56.802;23.964;2022-09-09T10:36:24;15.70;48.10
73438;DHT22;62744;56.802;23.964;2022-09-09T10:42:05;15.90;49.40
73438;DHT22;62744;56.802;23.964;2022-09-09T10:53:41;15.80;48.60
73438;DHT22;62744;56.802;23.964;2022-09-09T10:56:13;15.70;48.70
73438;DHT22;62744;56.802;23.964;2022-09-09T10:59:02;15.90;48.80
73438;DHT22;62744;56.802;23.964;2022-09-09T11:01:47;15.80;48.80
73438;DHT22;62744;56.802;23.964;2022-09-09T11:04:22;15.90;48.90
73438;DHT22;62744;56.802;23.964;2022-09-09T11:06:54;16.00;49.70
73438;DHT22;62744;56.802;23.964;2022-09-09T11:09:27;16.10;49.10
73438;DHT22;62744;56.802;23.964;2022-09-09T11:11:57;16.00;47.90
73438;DHT22;62744;56.802;23.964;2022-09-09T11:14:36;16.00;48.20
73438;DHT22;62744;56.802;23.964;2022-09-09T11:17:15;16.00;49.20
73438;DHT22;62744;56.802;23.964;2022-09-09T11:19:45;16.10;49.40
73438;DHT22;62744;56.802;23.964;2022-09-09T11:22:27;16.10;48.20
73438;DHT22;62744;56.802;23.964;2022-09-09T11:25:14;16.00;47.70
73438;DHT22;62744;56.802;23.964;2022-09-09T11:28:16;16.00;47.60
73438;DHT22;62744;56.802;23.964;2022-09-09T11:33:56;16.20;48.40
73438;DHT22;62744;56.802;23.964;2022-09-09T11:39:35;16.30;47.20
73438;DHT22;62744;56.802;23.964;2022-09-09T11:42:08;16.20;47.80
73438;DHT22;62744;56.802;23.964;2022-09-09T11:44:43;16.20;49.10
73438;DHT22;62744;56.802;23.964;2022-09-09T11:47:28;16.40;48.90
73438;DHT22;62744;56.802;23.964;2022-09-09T11:52:47;16.40;46.90
73438;DHT22;62744;56.802;23.964;2022-09-09T11:58:01;16.40;47.50
73438;DHT22;62744;56.802;23.964;2022-09-09T12:00:41;16.30;48.70
73438;DHT22;62744;56.802;23.964;2022-09-09T12:03:44;16.50;49.00
73438;DHT22;62744;56.802;23.964;2022-09-09T12:08:46;16.60;47.90
73438;DHT22;62744;56.802;23.964;2022-09-09T12:11:27;16.70;47.80
73438;DHT22;62744;56.802;23.964;2022-09-09T12:13:57;16.70;48.60
73438;DHT22;62744;56.802;23.964;2022-09-09T12:16:29;16.70;47.90
73438;DHT22;62744;56.802;23.964;2022-09-09T12:19:24;16.60;47.50
73438;DHT22;62744;56.802;23.964;2022-09-09T12:22:07;16.60;48.70
73438;DHT22;62744;56.802;23.964;2022-09-09T12:27:52;16.80;48.20
73438;DHT22;62744;56.802;23.964;2022-09-09T12:30:29;16.80;47.40
73438;DHT22;62744;56.802;23.964;2022-09-09T12:33:02;16.80;46.90
73438;DHT22;62744;56.802;23.964;2022-09-09T12:35:30;16.80;46.50
73438;DHT22;62744;56.802;23.964;2022-09-09T12:38:01;16.80;47.60
73438;DHT22;62744;56.802;23.964;2022-09-09T12:40:31;16.70;47.30
73438;DHT22;62744;56.802;23.964;2022-09-09T12:43:24;16.80;47.90
73438;DHT22;62744;56.802;23.964;2022-09-09T12:45:53;16.70;47.80
73438;DHT22;62744;56.802;23.964;2022-09-09T12:48:38;16.80;48.50
73438;DHT22;62744;56.802;23.964;2022-09-09T12:51:29;16.80;48.90
73438;DHT22;62744;56.802;23.964;2022-09-09T12:54:00;16.90;47.70
73438;DHT22;62744;56.802;23.964;2022-09-09T12:56:30;17.00;47.90
73438;DHT22;62744;56.802;23.964;2022-09-09T12:58:59;16.90;47.30
73438;DHT22;62744;56.802;23.964;2022-09-09T13:01:32;16.80;48.20
73438;DHT22;62744;56.802;23.964;2022-09-09T13:04:00;16.90;49.60
73438;DHT22;62744;56.802;23.964;2022-09-09T13:06:31;16.60;47.80
73438;DHT22;62744;56.802;23.964;2022-09-09T13:09:02;16.50;49.00
73438;DHT22;62744;56.802;23.964;2022-09-09T13:11:41;16.60;48.50
73438;DHT22;62744;56.802;23.964;2022-09-09T13:14:35;16.70;47.90
73438;DHT22;62744;56.802;23.964;2022-09-09T13:17:15;16.70;47.50
73438;DHT22;62744;56.802;23.964;2022-09-09T13:19:45;16.70;47.70
73438;DHT22;62744;56.802;23.964;2022-09-09T13:22:19;16.80;47.40
73438;DHT22;62744;56.802;23.964;2022-09-09T13:24:48;16.80;48.30
73438;DHT22;62744;56.802;23.964;2022-09-09T13:27:33;16.90;47.10
73438;DHT22;62744;56.802;23.964;2022-09-09T13:30:24;16.90;47.60
73438;DHT22;62744;56.802;23.964;2022-09-09T13:36:08;16.60;46.40
73438;DHT22;62744;56.802;23.964;2022-09-09T13:41:07;16.50;46.30
73438;DHT22;62744;56.802;23.964;2022-09-09T13:43:45;16.60;47.70
73438;DHT22;62744;56.802;23.964;2022-09-09T13:46:36;16.70;46.80
73438;DHT22;62744;56.802;23.964;2022-09-09T13:52:02;16.50;47.20
73438;DHT22;62744;56.802;23.964;2022-09-09T13:54:31;16.50;46.40
73438;DHT22;62744;56.802;23.964;2022-09-09T13:57:00;16.40;46.60
73438;DHT22;62744;56.802;23.964;2022-09-09T13:59:29;16.30;47.50
73438;DHT22;62744;56.802;23.964;2022-09-09T14:02:16;16.20;47.20
73438;DHT22;62744;56.802;23.964;2022-09-09T14:04:44;16.20;47.20
73438;DHT22;62744;56.802;23.964;2022-09-09T14:07:14;16.20;47.40
73438;DHT22;62744;56.802;23.964;2022-09-09T14:09:43;16.30;47.40
73438;DHT22;62744;56.802;23.964;2022-09-09T14:12:11;16.30;47.50
73438;DHT22;62744;56.802;23.964;2022-09-09T14:14:39;16.30;48.80
73438;DHT22;62744;56.802;23.964;2022-09-09T14:17:09;16.30;47.60
73438;DHT22;62744;56.802;23.964;2022-09-09T14:19:36;16.40;47.90
73438;DHT22;62744;56.802;23.964;2022-09-09T14:22:04;16.30;47.10
73438;DHT22;62744;56.802;23.964;2022-09-09T14:24:32;16.40;47.20
73438;DHT22;62744;56.802;23.964;2022-09-09T14:27:01;16.20;47.10
73438;DHT22;62744;56.802;23.964;2022-09-09T14:29:31;16.20;48.40
73438;DHT22;62744;56.802;23.964;2022-09-09T14:32:02;16.20;47.40
73438;DHT22;62744;56.802;23.964;2022-09-09T14:34:32;16.20;47.70
73438;DHT22;62744;56.802;23.964;2022-09-09T14:37:00;16.10;47.00
73438;DHT22;62744;56.802;23.964;2022-09-09T14:39:28;16.10;47.30
73438;DHT22;62744;56.802;23.964;2022-09-09T14:41:55;16.10;47.60
73438;DHT22;62744;56.802;23.964;2022-09-09T14:44:23;16.00;47.80
73438;DHT22;62744;56.802;23.964;2022-09-09T14:46:52;16.00;47.80
73438;DHT22;62744;56.802;23.964;2022-09-09T14:49:21;16.00;48.20
73438;DHT22;62744;56.802;23.964;2022-09-09T14:51:48;16.00;48.60
73438;DHT22;62744;56.802;23.964;2022-09-09T14:54:16;16.00;49.00
73438;DHT22;62744;56.802;23.964;2022-09-09T14:56:44;16.00;48.30
73438;DHT22;62744;56.802;23.964;2022-09-09T14:59:11;16.00;48.20
73438;DHT22;62744;56.802;23.964;2022-09-09T15:01:40;16.00;48.70
73438;DHT22;62744;56.802;23.964;2022-09-09T15:04:12;16.00;48.10
73438;DHT22;62744;56.802;23.964;2022-09-09T15:06:42;16.00;48.30
73438;DHT22;62744;56.802;23.964;2022-09-09T15:09:11;15.90;48.40
73438;DHT22;62744;56.802;23.964;2022-09-09T15:11:38;15.90;48.40
73438;DHT22;62744;56.802;23.964;2022-09-09T15:14:08;15.70;48.50
73438;DHT22;62744;56.802;23.964;2022-09-09T15:16:37;15.70;48.10
73438;DHT22;62744;56.802;23.964;2022-09-09T15:19:05;15.70;48.40
73438;DHT22;62744;56.802;23.964;2022-09-09T15:21:35;15.60;48.10
73438;DHT22;62744;56.802;23.964;2022-09-09T15:24:03;15.50;49.00
73438;DHT22;62744;56.802;23.964;2022-09-09T15:26:31;15.60;48.70
73438;DHT22;62744;56.802;23.964;2022-09-09T15:28:59;15.40;50.60
73438;DHT22;62744;56.802;23.964;2022-09-09T15:31:30;15.30;51.20
73438;DHT22;62744;56.802;23.964;2022-09-09T15:34:01;15.20;50.80
73438;DHT22;62744;56.802;23.964;2022-09-09T15:36:57;15.20;50.40
73438;DHT22;62744;56.802;23.964;2022-09-09T15:39:27;15.10;51.30
73438;DHT22;62744;56.802;23.964;2022-09-09T15:41:54;15.10;51.90
73438;DHT22;62744;56.802;23.964;2022-09-09T15:44:22;15.00;52.10
73438;DHT22;62744;56.802;23.964;2022-09-09T15:46:53;15.00;52.10
73438;DHT22;62744;56.802;23.964;2022-09-09T15:49:25;14.90;52.70
73438;DHT22;62744;56.802;23.964;2022-09-09T15:51:58;14.80;53.00
73438;DHT22;62744;56.802;23.964;2022-09-09T15:54:33;14.70;53.80
73438;DHT22;62744;56.802;23.964;2022-09-09T15:57:03;14.70;54.50
73438;DHT22;62744;56.802;23.964;2022-09-09T15:59:31;14.50;54.60
73438;DHT22;62744;56.802;23.964;2022-09-09T16:02:00;14.50;54.20
73438;DHT22;62744;56.802;23.964;2022-09-09T16:04:28;14.50;54.60
73438;DHT22;62744;56.802;23.964;2022-09-09T16:07:00;14.40;55.40
73438;DHT22;62744;56.802;23.964;2022-09-09T16:09:28;14.30;55.50
73438;DHT22;62744;56.802;23.964;2022-09-09T16:12:01;14.30;55.70
73438;DHT22;62744;56.802;23.964;2022-09-09T16:14:29;14.20;55.90
73438;DHT22;62744;56.802;23.964;2022-09-09T16:17:02;14.10;56.20
73438;DHT22;62744;56.802;23.964;2022-09-09T16:19:30;14.00;56.20
73438;DHT22;62744;56.802;23.964;2022-09-09T16:21:58;14.00;56.40
73438;DHT22;62744;56.802;23.964;2022-09-09T16:24:30;13.90;56.60
73438;DHT22;62744;56.802;23.964;2022-09-09T16:26:57;13.80;57.10
73438;DHT22;62744;56.802;23.964;2022-09-09T16:29:25;13.80;57.30
73438;DHT22;62744;56.802;23.964;2022-09-09T16:31:56;13.70;57.50
73438;DHT22;62744;56.802;23.964;2022-09-09T16:34:30;13.60;58.00
73438;DHT22;62744;56.802;23.964;2022-09-09T16:36:57;13.50;58.30
73438;DHT22;62744;56.802;23.964;2022-09-09T16:39:25;13.40;58.40
73438;DHT22;62744;56.802;23.964;2022-09-09T16:41:53;13.40;58.50
73438;DHT22;62744;56.802;23.964;2022-09-09T16:44:21;13.30;58.80
73438;DHT22;62744;56.802;23.964;2022-09-09T16:46:49;13.10;59.50
73438;DHT22;62744;56.802;23.964;2022-09-09T16:49:25;13.10;59.30
73438;DHT22;62744;56.802;23.964;2022-09-09T16:51:56;13.10;59.20
73438;DHT22;62744;56.802;23.964;2022-09-09T16:54:24;13.00;60.20
73438;DHT22;62744;56.802;23.964;2022-09-09T16:56:54;12.90;60.30
73438;DHT22;62744;56.802;23.964;2022-09-09T16:59:22;12.90;60.60
73438;DHT22;62744;56.802;23.964;2022-09-09T17:01:51;12.80;60.50
73438;DHT22;62744;56.802;23.964;2022-09-09T17:04:21;12.70;61.30
73438;DHT22;62744;56.802;23.964;2022-09-09T17:06:53;12.60;62.90
73438;DHT22;62744;56.802;23.964;2022-09-09T17:09:22;12.50;63.30
73438;DHT22;62744;56.802;23.964;2022-09-09T17:11:51;12.40;63.30
73438;DHT22;62744;56.802;23.964;2022-09-09T17:14:21;12.40;63.40
73438;DHT22;62744;56.802;23.964;2022-09-09T17:16:49;12.30;64.00
73438;DHT22;62744;56.802;23.964;2022-09-09T17:19:16;12.20;64.10
73438;DHT22;62744;56.802;23.964;2022-09-09T17:21:45;12.00;64.90
73438;DHT22;62744;56.802;23.964;2022-09-09T17:24:35;12.10;65.10
73438;DHT22;62744;56.802;23.964;2022-09-09T17:27:06;11.90;65.10
73438;DHT22;62744;56.802;23.964;2022-09-09T17:29:34;11.80;65.30
73438;DHT22;62744;56.802;23.964;2022-09-09T17:32:03;11.90;65.60
73438;DHT22;62744;56.802;23.964;2022-09-09T17:34:33;11.80;65.70
73438;DHT22;62744;56.802;23.964;2022-09-09T17:37:02;11.70;65.80